Terminal Aerodrome Forecast
Issued by NWS Sterling, VA

Current Version | Previous Version | Text Only | Print | Product List | Glossary Off
Versions: 1 2 3 4 5 6 7 8 9 10 11 12 13 14 15 16 17 18 19 20 21 22 23

000
FTUS41 KLWX 172059 AAA
TAFDCA
TAF AMD
KDCA 172059Z 1721/1824 34014G23KT P6SM BKN100 BKN200
     FM172300 32011G18KT P6SM SCT100 BKN250
     FM180500 30009KT P6SM FEW120
     FM181300 28010G18KT P6SM FEW150
     FM182100 27006KT P6SM SKC=

USA.gov is the U.S. government's official web portal to all federal, state and local government web resources and services.